Time;durP1;ratioP1;P1;durP2;ratioP2;P2;SDS_P1;SDS_P2;PMS_P1;PMS_P2;Temp;Humidity;BMP_temperature;BMP_pressure;BME280_temperature;BME280_humidity;BME280_pressure;Samples;Min_cycle;Max_cycle;Signal;HPM_P1;HPM_P2
2022/05/18 00:00:28;;;;;;;4.65;3.20;;;17.10;99.90;;;;;;5030073;28;20687;-74
2022/05/18 00:03:04;;;;;;;8.50;3.97;;;17.10;99.90;;;;;;5046291;28;20025;-74
2022/05/18 00:05:38;;;;;;;10.35;3.22;;;17.10;99.90;;;;;;5043486;28;20090;-74
2022/05/18 00:08:05;;;;;;;6.72;2.92;;;17.00;99.90;;;;;;5051400;28;20024;-74
2022/05/18 00:10:31;;;;;;;4.93;3.22;;;17.00;99.90;;;;;;5045529;28;20032;-74
2022/05/18 00:12:57;;;;;;;4.22;2.83;;;17.00;99.90;;;;;;5041200;28;20095;-74
2022/05/18 00:15:25;;;;;;;3.83;2.55;;;16.90;99.90;;;;;;5026739;28;20033;-73
2022/05/18 00:17:51;;;;;;;3.42;2.67;;;16.90;99.90;;;;;;5053003;28;20020;-73
2022/05/18 00:20:18;;;;;;;5.38;2.97;;;16.80;99.90;;;;;;5045843;28;20473;-74
2022/05/18 00:22:48;;;;;;;4.72;2.70;;;16.80;99.90;;;;;;5047247;28;20031;-74
2022/05/18 00:25:14;;;;;;;4.90;3.15;;;16.80;99.90;;;;;;5026812;28;20029;-73
2022/05/18 00:27:40;;;;;;;7.15;3.30;;;16.80;99.90;;;;;;5040147;28;20051;-74
2022/05/18 00:30:07;;;;;;;5.50;2.95;;;16.80;99.90;;;;;;5037302;28;20021;-74
2022/05/18 00:32:33;;;;;;;6.15;3.38;;;16.80;99.90;;;;;;5026383;28;20025;-74
2022/05/18 00:34:58;;;;;;;6.45;2.75;;;16.80;99.90;;;;;;5029620;28;20071;-74
2022/05/18 00:37:24;;;;;;;7.90;3.33;;;16.80;99.90;;;;;;5047905;28;20077;-74
2022/05/18 00:39:49;;;;;;;6.10;3.67;;;16.80;99.90;;;;;;5030767;28;20115;-74
2022/05/18 00:42:20;;;;;;;4.72;3.20;;;16.70;99.90;;;;;;5046343;28;20061;-74
2022/05/18 00:44:46;;;;;;;9.68;3.65;;;16.70;99.90;;;;;;5048939;28;20111;-74
2022/05/18 00:47:13;;;;;;;9.80;3.95;;;16.60;99.90;;;;;;5049721;28;20037;-74
2022/05/18 00:49:41;;;;;;;8.10;3.90;;;16.60;99.90;;;;;;5053385;28;20385;-74
2022/05/18 00:52:07;;;;;;;5.90;4.68;;;16.60;99.90;;;;;;5046420;28;20108;-75
2022/05/18 00:54:35;;;;;;;7.97;5.00;;;16.50;99.90;;;;;;5047978;28;20139;-73
2022/05/18 00:57:33;;;;;;;11.07;5.00;;;16.40;99.90;;;;;;5051392;28;20064;-73
2022/05/18 01:00:10;;;;;;;7.65;4.93;;;16.40;99.90;;;;;;5032942;28;20429;-74
2022/05/18 01:02:39;;;;;;;7.38;4.63;;;16.40;99.90;;;;;;5046209;28;20033;-73
2022/05/18 01:05:09;;;;;;;7.55;5.20;;;16.30;99.90;;;;;;5049505;28;20041;-73
2022/05/18 01:07:44;;;;;;;7.32;5.30;;;16.30;99.90;;;;;;5046423;28;20028;-73
2022/05/18 01:10:10;;;;;;;7.22;5.10;;;16.20;99.90;;;;;;5049774;28;20024;-73
2022/05/18 01:12:36;;;;;;;10.10;5.60;;;16.20;99.90;;;;;;5031768;28;20095;-76
2022/05/18 01:15:07;;;;;;;8.57;5.13;;;16.10;99.90;;;;;;5033155;28;20036;-73
2022/05/18 01:17:39;;;;;;;6.40;5.22;;;16.10;99.90;;;;;;5053355;28;20037;-75
2022/05/18 01:20:11;;;;;;;8.40;5.50;;;16.00;99.90;;;;;;5059934;28;20071;-75
2022/05/18 01:22:55;;;;;;;6.25;4.95;;;16.00;99.90;;;;;;5044026;28;20033;-73
2022/05/18 01:25:29;;;;;;;7.20;4.63;;;16.00;99.90;;;;;;5035903;28;20028;-73
2022/05/18 01:27:57;;;;;;;5.38;4.60;;;15.90;99.90;;;;;;5048687;28;20029;-75
2022/05/18 01:30:24;;;;;;;6.63;4.63;;;16.00;99.90;;;;;;5050235;28;20029;-75
2022/05/18 01:32:53;;;;;;;7.43;4.43;;;15.90;99.90;;;;;;5028246;28;20095;-75
2022/05/18 01:35:22;;;;;;;8.65;4.57;;;15.80;99.90;;;;;;5046502;28;20535;-76
2022/05/18 01:37:48;;;;;;;6.15;4.80;;;15.80;99.90;;;;;;5040792;28;20090;-75
2022/05/18 01:40:28;;;;;;;6.68;4.63;;;15.80;99.90;;;;;;5051791;28;20474;-75
2022/05/18 01:42:59;;;;;;;9.02;4.90;;;15.80;99.90;;;;;;5052239;28;20029;-75
2022/05/18 01:45:26;;;;;;;6.72;4.63;;;15.70;99.90;;;;;;5049845;28;20057;-75
2022/05/18 01:47:51;;;;;;;7.70;5.25;;;15.80;99.90;;;;;;5047087;28;20033;-75
2022/05/18 01:50:25;;;;;;;9.90;5.70;;;15.70;99.90;;;;;;5052138;28;20029;-75
2022/05/18 01:52:50;;;;;;;6.50;5.22;;;15.70;99.90;;;;;;5046657;28;20025;-75
2022/05/18 01:55:17;;;;;;;9.27;5.93;;;15.70;99.90;;;;;;5033408;28;20033;-75
2022/05/18 01:57:43;;;;;;;7.10;5.03;;;15.70;99.90;;;;;;5050051;28;20036;-75
2022/05/18 02:00:11;;;;;;;7.80;5.15;;;15.70;99.90;;;;;;5051832;28;20029;-76
2022/05/18 02:02:38;;;;;;;7.50;4.88;;;15.70;99.90;;;;;;5052705;28;20109;-76
2022/05/18 02:05:04;;;;;;;7.03;4.47;;;15.60;99.90;;;;;;5048750;28;20033;-75
2022/05/18 02:07:29;;;;;;;7.72;3.92;;;15.60;99.90;;;;;;5050629;28;20033;-75
2022/05/18 02:09:55;;;;;;;6.38;2.72;;;15.60;99.90;;;;;;5049696;28;20387;-75
2022/05/18 02:12:21;;;;;;;6.50;3.25;;;15.60;99.90;;;;;;5036828;28;20044;-75
2022/05/18 02:14:46;;;;;;;6.32;3.15;;;15.50;99.90;;;;;;5049419;28;20053;-73
2022/05/18 02:17:12;;;;;;;7.28;3.38;;;15.50;99.90;;;;;;5032064;28;20036;-75
2022/05/18 02:19:38;;;;;;;7.68;3.78;;;15.50;99.90;;;;;;5049204;28;20039;-75
2022/05/18 02:22:04;;;;;;;4.07;3.00;;;15.40;99.90;;;;;;5034345;28;20025;-75
2022/05/18 02:24:30;;;;;;;7.07;3.35;;;15.40;99.90;;;;;;5050423;28;20032;-75
2022/05/18 02:26:56;;;;;;;6.18;4.40;;;15.40;99.90;;;;;;5046433;28;20048;-75
2022/05/18 02:29:21;;;;;;;9.50;4.30;;;15.30;99.90;;;;;;5049331;28;20021;-75
2022/05/18 02:31:47;;;;;;;6.35;3.72;;;15.20;99.90;;;;;;5048126;28;20025;-75
2022/05/18 02:34:13;;;;;;;7.55;4.45;;;15.20;99.90;;;;;;5049952;28;20075;-75
2022/05/18 02:36:39;;;;;;;5.97;4.45;;;15.10;99.90;;;;;;5052763;28;20029;-75
2022/05/18 02:39:04;;;;;;;5.80;4.30;;;15.10;99.90;;;;;;5051483;28;20025;-75
2022/05/18 02:41:30;;;;;;;6.85;4.57;;;15.10;99.90;;;;;;5036228;28;20033;-76
2022/05/18 02:43:56;;;;;;;6.93;4.78;;;15.00;99.90;;;;;;5051947;28;20065;-76
2022/05/18 02:46:22;;;;;;;6.00;3.88;;;15.00;99.90;;;;;;5046845;28;20029;-76
2022/05/18 02:48:51;;;;;;;7.07;4.22;;;15.00;99.90;;;;;;5031206;28;20028;-75
2022/05/18 02:51:19;;;;;;;7.60;3.90;;;14.90;99.90;;;;;;5018324;28;20037;-75
2022/05/18 02:53:44;;;;;;;6.60;4.07;;;14.90;99.90;;;;;;5053418;28;20100;-76
2022/05/18 02:56:14;;;;;;;6.47;4.20;;;14.90;99.90;;;;;;5050088;28;20501;-75
2022/05/18 02:58:47;;;;;;;10.00;4.40;;;14.90;99.90;;;;;;5051184;28;20422;-76
2022/05/18 03:01:18;;;;;;;7.00;4.55;;;14.90;99.90;;;;;;5052610;28;20210;-75
2022/05/18 03:03:45;;;;;;;9.82;3.75;;;14.90;99.90;;;;;;5045800;28;20032;-75
2022/05/18 03:06:13;;;;;;;9.73;4.30;;;14.90;99.90;;;;;;5051705;28;20504;-75
2022/05/18 03:08:40;;;;;;;5.93;3.88;;;14.90;99.90;;;;;;5048563;28;20470;-75
2022/05/18 03:11:06;;;;;;;5.72;3.92;;;14.90;99.90;;;;;;5048962;28;20772;-75
2022/05/18 03:13:32;;;;;;;9.13;4.53;;;14.80;99.90;;;;;;5040178;28;20101;-75
2022/05/18 03:15:58;;;;;;;4.35;3.70;;;14.80;99.90;;;;;;5050520;28;20102;-75
2022/05/18 03:18:24;;;;;;;8.23;4.25;;;14.70;99.90;;;;;;5046767;28;20036;-75
2022/05/18 03:23:35;;;;;;;5.70;3.85;;;14.70;99.90;;;;;;5048408;28;20036;-74
2022/05/18 03:26:06;;;;;;;12.27;4.35;;;14.60;99.90;;;;;;5033728;28;20404;-74
2022/05/18 03:28:32;;;;;;;6.30;4.20;;;14.60;99.90;;;;;;5029542;28;20604;-74
2022/05/18 03:30:57;;;;;;;6.85;3.72;;;14.60;99.90;;;;;;5048696;28;20028;-74
2022/05/18 03:33:23;;;;;;;8.38;4.45;;;14.60;99.90;;;;;;5030222;28;20032;-75
2022/05/18 03:35:50;;;;;;;7.00;3.95;;;14.50;99.90;;;;;;5047648;28;20074;-75
2022/05/18 03:38:18;;;;;;;7.15;5.10;;;14.50;99.90;;;;;;5049136;28;20032;-74
2022/05/18 03:40:43;;;;;;;7.18;5.30;;;14.50;99.90;;;;;;5046911;28;20482;-75
2022/05/18 03:43:09;;;;;;;7.90;4.13;;;14.40;99.90;;;;;;5053516;28;20107;-74
2022/05/18 03:45:35;;;;;;;8.30;5.22;;;14.40;99.90;;;;;;5047049;28;20064;-74
2022/05/18 03:48:01;;;;;;;7.20;5.55;;;14.40;99.90;;;;;;5050790;28;20025;-74
2022/05/18 03:50:28;;;;;;;7.20;4.68;;;14.40;99.90;;;;;;5046118;28;20029;-74
2022/05/18 03:52:58;;;;;;;7.63;4.88;;;14.40;99.90;;;;;;5052445;28;20017;-74
2022/05/18 03:55:25;;;;;;;12.25;5.03;;;14.40;99.90;;;;;;5045330;28;20028;-75
2022/05/18 03:57:51;;;;;;;7.50;4.18;;;14.40;99.90;;;;;;5029955;28;20025;-74
2022/05/18 04:00:18;;;;;;;7.47;4.65;;;14.30;99.90;;;;;;5047901;28;20066;-73
2022/05/18 04:02:44;;;;;;;6.72;5.00;;;14.30;99.90;;;;;;5047794;28;20536;-74
2022/05/18 04:05:12;;;;;;;6.35;4.20;;;14.30;99.90;;;;;;5044018;28;20026;-73
2022/05/18 04:07:38;;;;;;;7.38;4.10;;;14.30;99.90;;;;;;5044906;28;20029;-73
2022/05/18 04:10:04;;;;;;;6.60;4.28;;;14.30;99.90;;;;;;5055093;28;20119;-73
2022/05/18 04:12:30;;;;;;;8.93;4.80;;;14.30;99.90;;;;;;5050170;28;20029;-73
2022/05/18 04:14:56;;;;;;;8.05;4.85;;;14.30;99.90;;;;;;5029904;28;20135;-74
2022/05/18 04:17:23;;;;;;;7.38;4.18;;;14.30;99.90;;;;;;5051895;28;20109;-72
2022/05/18 04:19:49;;;;;;;9.70;4.07;;;14.40;99.90;;;;;;5042618;28;20033;-73
2022/05/18 04:22:15;;;;;;;8.85;3.92;;;14.40;99.90;;;;;;5050896;28;20036;-75
2022/05/18 04:24:41;;;;;;;8.73;3.85;;;14.40;99.90;;;;;;5037966;28;20060;-73
2022/05/18 04:27:06;;;;;;;6.18;4.35;;;14.40;99.90;;;;;;5058640;28;20024;-74
2022/05/18 04:29:35;;;;;;;9.68;4.47;;;14.40;99.90;;;;;;5035475;28;20074;-75
2022/05/18 04:32:01;;;;;;;8.45;4.82;;;14.50;99.90;;;;;;5054195;28;20040;-74
2022/05/18 04:34:27;;;;;;;7.43;4.50;;;14.50;99.90;;;;;;5049752;28;20661;-73
2022/05/18 04:36:52;;;;;;;6.63;4.28;;;14.60;99.90;;;;;;5038502;28;20025;-74
2022/05/18 04:39:18;;;;;;;7.13;4.35;;;14.70;99.90;;;;;;5055264;28;20108;-74
2022/05/18 04:41:44;;;;;;;6.88;4.53;;;14.80;99.90;;;;;;5040468;28;20037;-74
2022/05/18 04:44:10;;;;;;;7.20;4.28;;;14.80;99.90;;;;;;5054415;28;20033;-73
2022/05/18 04:46:35;;;;;;;6.93;4.50;;;14.90;99.90;;;;;;5040781;28;20106;-74
2022/05/18 04:49:01;;;;;;;9.75;5.03;;;15.00;99.90;;;;;;5040393;28;20108;-74
2022/05/18 04:51:27;;;;;;;8.50;4.60;;;15.00;99.90;;;;;;5048727;28;20436;-73
2022/05/18 04:53:53;;;;;;;7.20;4.40;;;15.10;99.90;;;;;;5052707;28;20099;-73
2022/05/18 04:56:19;;;;;;;6.07;4.53;;;15.20;99.90;;;;;;5055847;28;20025;-72
2022/05/18 04:58:45;;;;;;;5.63;4.20;;;15.10;99.90;;;;;;5053519;28;20068;-73
2022/05/18 05:01:11;;;;;;;6.75;4.32;;;15.30;99.90;;;;;;5052266;28;20528;-73
2022/05/18 05:03:37;;;;;;;8.90;4.68;;;15.40;99.90;;;;;;5048491;28;20029;-73
2022/05/18 05:06:04;;;;;;;10.75;4.85;;;15.60;99.90;;;;;;5056135;28;20044;-73
2022/05/18 05:08:31;;;;;;;7.38;5.05;;;15.60;99.90;;;;;;5044366;28;20112;-73
2022/05/18 05:10:57;;;;;;;9.90;5.65;;;15.60;99.90;;;;;;5057158;28;20063;-73
2022/05/18 05:13:23;;;;;;;10.48;5.82;;;15.80;99.90;;;;;;5052513;28;20542;-73
2022/05/18 05:15:54;;;;;;;10.45;6.47;;;15.80;99.90;;;;;;5054675;28;20061;-74
2022/05/18 05:18:20;;;;;;;7.75;5.75;;;16.00;99.90;;;;;;5051228;28;20025;-73
2022/05/18 05:20:46;;;;;;;6.03;5.03;;;16.20;99.90;;;;;;5031387;28;20032;-75
2022/05/18 05:23:11;;;;;;;9.23;5.88;;;16.40;99.90;;;;;;5054180;28;20029;-73
2022/05/18 05:25:37;;;;;;;6.93;5.13;;;16.60;99.90;;;;;;5053455;28;20112;-74
2022/05/18 05:28:06;;;;;;;7.20;5.50;;;16.70;99.90;;;;;;5054562;28;20112;-73
2022/05/18 05:30:31;;;;;;;8.30;5.65;;;16.90;99.90;;;;;;5061185;22;20029;-77
2022/05/18 05:32:57;;;;;;;10.93;5.43;;;17.10;99.90;;;;;;5063793;28;20113;-76
2022/05/18 05:35:23;;;;;;;9.93;5.68;;;17.30;99.90;;;;;;5063026;28;20024;-75
2022/05/18 05:37:49;;;;;;;9.68;5.53;;;17.50;99.90;;;;;;5061429;28;20031;-76
2022/05/18 05:40:16;;;;;;;7.18;4.70;;;17.50;99.90;;;;;;5040995;28;20093;-78
2022/05/18 05:42:42;;;;;;;7.07;4.28;;;17.70;99.90;;;;;;5047177;28;20036;-77
2022/05/18 05:45:08;;;;;;;8.82;5.10;;;17.90;99.90;;;;;;5066809;28;20044;-76
2022/05/18 05:47:35;;;;;;;7.72;4.90;;;18.10;99.90;;;;;;5045152;28;20151;-84
2022/05/18 05:50:00;;;;;;;8.60;5.00;;;18.20;99.90;;;;;;5062980;28;20051;-75
2022/05/18 05:52:26;;;;;;;8.13;4.60;;;18.20;99.90;;;;;;5043898;28;20500;-76
2022/05/18 05:54:51;;;;;;;7.10;4.82;;;18.20;99.90;;;;;;5046131;28;20025;-75
2022/05/18 05:57:17;;;;;;;9.65;5.07;;;18.40;99.90;;;;;;5045652;28;20033;-76
2022/05/18 05:59:44;;;;;;;10.32;4.57;;;18.40;99.90;;;;;;5060464;28;20071;-75
2022/05/18 06:02:12;;;;;;;7.07;4.35;;;18.50;99.90;;;;;;5047697;28;20044;-76
2022/05/18 06:04:38;;;;;;;8.88;4.85;;;18.60;99.90;;;;;;5055529;28;20029;-75
2022/05/18 06:07:04;;;;;;;8.85;5.10;;;18.80;99.90;;;;;;5060318;28;20021;-77
2022/05/18 06:09:30;;;;;;;6.63;4.82;;;18.90;99.90;;;;;;5061727;28;20028;-76
2022/05/18 06:11:56;;;;;;;7.35;4.60;;;18.90;99.90;;;;;;5060696;28;20477;-75
2022/05/18 06:14:21;;;;;;;9.90;5.13;;;18.90;99.90;;;;;;5058118;28;20021;-75
2022/05/18 06:16:47;;;;;;;6.05;5.10;;;18.90;99.90;;;;;;5047647;28;20029;-75
2022/05/18 06:19:14;;;;;;;9.38;4.57;;;19.00;99.90;;;;;;5058767;28;20028;-76
2022/05/18 06:21:41;;;;;;;8.40;5.45;;;18.90;99.90;;;;;;5062133;28;20025;-76
2022/05/18 06:24:07;;;;;;;8.02;4.90;;;19.00;99.90;;;;;;5044787;28;20025;-76
2022/05/18 06:26:32;;;;;;;7.85;4.80;;;19.10;99.90;;;;;;5049482;28;20036;-76
2022/05/18 06:28:58;;;;;;;10.75;4.78;;;19.10;99.90;;;;;;5086387;22;20039;-70
2022/05/18 06:31:23;;;;;;;8.60;4.35;;;19.10;99.90;;;;;;5081913;28;20052;-70
2022/05/18 06:33:49;;;;;;;7.38;4.68;;;19.00;99.90;;;;;;5078076;28;20032;-70
2022/05/18 06:36:15;;;;;;;7.63;4.82;;;19.10;99.90;;;;;;5079166;28;20082;-75
2022/05/18 06:38:41;;;;;;;6.85;3.70;;;19.10;99.90;;;;;;5076430;28;20060;-69
2022/05/18 06:41:22;;;;;;;8.48;4.63;;;19.10;99.90;;;;;;5066087;28;20024;-72
2022/05/18 06:44:00;;;;;;;6.65;3.95;;;19.10;99.90;;;;;;5076364;28;20082;-71
2022/05/18 06:46:26;;;;;;;7.03;3.80;;;19.20;99.90;;;;;;5080204;28;20099;-71
2022/05/18 06:48:54;;;;;;;7.47;4.70;;;19.30;99.90;;;;;;5083823;28;20031;-68
2022/05/18 06:51:25;;;;;;;6.65;4.03;;;19.30;99.90;;;;;;5065514;28;20099;-72
2022/05/18 06:53:52;;;;;;;7.78;4.53;;;19.40;99.90;;;;;;5083752;28;20054;-70
2022/05/18 06:56:22;;;;;;;10.73;4.20;;;19.50;99.90;;;;;;5078360;28;20028;-71
2022/05/18 06:58:49;;;;;;;12.20;4.82;;;19.60;99.90;;;;;;5078879;28;20038;-71
2022/05/18 07:01:15;;;;;;;7.75;4.47;;;19.80;99.90;;;;;;5077277;28;20031;-72
2022/05/18 07:03:42;;;;;;;8.15;4.07;;;19.90;99.90;;;;;;5076337;28;20032;-70
2022/05/18 07:06:07;;;;;;;10.52;4.65;;;20.00;99.90;;;;;;5086661;28;20396;-71
2022/05/18 07:08:34;;;;;;;8.23;4.50;;;20.10;99.90;;;;;;5067746;28;20020;-69
2022/05/18 07:11:00;;;;;;;8.18;3.83;;;20.30;99.90;;;;;;5079873;28;20059;-69
2022/05/18 07:13:25;;;;;;;10.57;4.65;;;20.50;99.90;;;;;;5079668;28;20048;-70
2022/05/18 07:15:51;;;;;;;5.65;4.32;;;20.50;99.90;;;;;;5083851;28;20020;-71
2022/05/18 07:18:17;;;;;;;7.93;4.28;;;20.50;99.90;;;;;;5067966;28;20901;-70
2022/05/18 07:20:42;;;;;;;8.07;3.80;;;20.60;99.90;;;;;;5067313;28;20118;-70
2022/05/18 07:23:09;;;;;;;8.90;3.65;;;20.60;99.90;;;;;;5079360;28;20028;-70
2022/05/18 07:25:35;;;;;;;10.13;3.40;;;20.70;99.90;;;;;;5066685;28;20040;-70
2022/05/18 07:28:01;;;;;;;7.57;3.40;;;20.80;99.90;;;;;;5084572;28;20066;-71
2022/05/18 07:30:26;;;;;;;8.55;2.95;;;20.90;99.90;;;;;;5063630;28;20379;-70
2022/05/18 07:32:52;;;;;;;7.82;3.20;;;20.90;99.90;;;;;;5060795;28;20031;-70
2022/05/18 07:35:18;;;;;;;8.98;3.47;;;21.00;99.90;;;;;;5084525;28;20084;-71
2022/05/18 07:37:43;;;;;;;6.53;3.42;;;21.10;99.50;;;;;;5084316;28;20674;-70
2022/05/18 07:40:11;;;;;;;9.00;3.92;;;21.20;99.60;;;;;;5060267;28;20069;-70
2022/05/18 07:42:38;;;;;;;8.32;3.28;;;21.30;99.90;;;;;;5064464;28;20078;-67
2022/05/18 07:45:06;;;;;;;6.10;3.00;;;21.30;99.40;;;;;;5082273;28;20039;-71
2022/05/18 07:47:32;;;;;;;7.55;3.50;;;21.40;98.70;;;;;;5076374;28;20024;-68
2022/05/18 07:49:58;;;;;;;6.45;2.80;;;21.50;98.60;;;;;;5084023;28;20468;-71
2022/05/18 07:52:24;;;;;;;7.25;3.20;;;21.60;98.20;;;;;;5078157;28;20035;-70
2022/05/18 07:54:50;;;;;;;7.28;3.20;;;21.60;97.80;;;;;;5077445;28;20032;-71
2022/05/18 07:57:17;;;;;;;3.67;3.22;;;21.80;97.50;;;;;;5087801;28;20051;-71
2022/05/18 07:59:43;;;;;;;3.55;2.47;;;22.00;96.30;;;;;;5080236;28;20370;-70
2022/05/18 08:02:09;;;;;;;9.27;3.20;;;22.10;96.10;;;;;;5067070;28;20119;-70
2022/05/18 08:04:35;;;;;;;4.07;2.78;;;22.30;94.40;;;;;;5081621;28;20121;-71
2022/05/18 08:07:00;;;;;;;4.78;3.13;;;22.50;93.30;;;;;;5079649;28;20115;-71
2022/05/18 08:09:26;;;;;;;6.72;3.28;;;22.60;92.80;;;;;;5085242;28;20071;-71
2022/05/18 08:17:23;;;;;;;6.63;2.75;;;23.00;90.50;;;;;;5085500;28;20507;-69
2022/05/18 08:19:49;;;;;;;4.82;2.97;;;23.00;90.70;;;;;;5083712;28;20020;-70
2022/05/18 08:22:14;;;;;;;3.63;2.42;;;23.20;89.60;;;;;;5066147;28;20036;-70
2022/05/18 08:24:40;;;;;;;7.70;2.95;;;23.20;89.50;;;;;;5086505;28;20048;-70
2022/05/18 08:27:12;;;;;;;3.17;2.42;;;23.40;87.90;;;;;;5082348;28;20039;-69
2022/05/18 08:29:38;;;;;;;11.07;3.33;;;23.40;87.00;;;;;;5085303;28;20085;-71
2022/05/18 08:32:04;;;;;;;3.90;2.75;;;23.60;85.10;;;;;;5086305;28;20020;-71
2022/05/18 08:34:30;;;;;;;3.33;2.33;;;23.70;84.70;;;;;;5069354;28;20024;-71
2022/05/18 08:36:55;;;;;;;3.50;2.30;;;23.70;83.60;;;;;;5070039;28;20046;-71
2022/05/18 08:39:21;;;;;;;5.35;2.60;;;23.80;83.30;;;;;;5084627;28;20085;-71
2022/05/18 08:41:49;;;;;;;3.67;3.00;;;23.80;82.70;;;;;;5067250;28;20081;-71
2022/05/18 08:44:32;;;;;;;5.50;2.80;;;23.90;82.10;;;;;;5085955;28;20085;-71
2022/05/18 08:47:07;;;;;;;4.55;2.13;;;24.00;81.80;;;;;;5081599;28;20126;-71
2022/05/18 08:49:39;;;;;;;3.03;2.00;;;24.10;79.30;;;;;;5085106;28;20058;-70
2022/05/18 08:52:46;;;;;;;5.55;2.67;;;24.10;79.60;;;;;;5084296;28;20421;-71
2022/05/18 08:55:30;;;;;;;3.38;2.33;;;24.10;77.10;;;;;;5084925;28;20032;-70
2022/05/18 08:57:58;;;;;;;3.80;2.30;;;24.10;77.50;;;;;;5084544;28;20035;-71
2022/05/18 09:00:33;;;;;;;4.40;2.65;;;24.00;77.90;;;;;;5085984;28;20024;-69
2022/05/18 09:03:06;;;;;;;8.07;2.65;;;24.10;78.80;;;;;;5084112;28;20093;-70
2022/05/18 09:05:57;;;;;;;4.73;2.83;;;24.20;77.90;;;;;;5084293;28;20028;-71
2022/05/18 09:08:32;;;;;;;7.78;2.40;;;24.20;77.10;;;;;;5085431;28;20039;-72
2022/05/18 09:11:13;;;;;;;3.13;2.28;;;24.30;76.40;;;;;;5089281;28;20039;-71
2022/05/18 09:13:39;;;;;;;3.72;2.90;;;24.40;76.00;;;;;;5087952;28;20417;-71
2022/05/18 09:16:20;;;;;;;5.30;2.50;;;24.40;75.70;;;;;;5084961;28;20031;-71
2022/05/18 09:19:10;;;;;;;4.20;2.67;;;24.50;76.10;;;;;;5084234;28;20492;-71
2022/05/18 09:21:51;;;;;;;3.65;2.40;;;24.50;75.60;;;;;;5086395;28;20446;-70
2022/05/18 09:24:53;;;;;;;5.38;2.28;;;24.50;75.90;;;;;;5087675;28;20103;-71
2022/05/18 09:27:26;;;;;;;7.10;2.10;;;24.60;75.60;;;;;;5084831;28;20024;-70
2022/05/18 09:29:52;;;;;;;2.85;2.47;;;24.60;73.20;;;;;;5071047;28;20066;-71
2022/05/18 09:32:23;;;;;;;5.80;2.75;;;24.50;72.30;;;;;;5086731;28;20334;-71
2022/05/18 09:35:07;;;;;;;4.28;2.05;;;24.50;72.10;;;;;;5089833;28;20063;-68
2022/05/18 09:38:16;;;;;;;4.75;2.30;;;24.40;71.80;;;;;;5086598;28;20115;-71
2022/05/18 09:40:48;;;;;;;3.08;2.22;;;24.30;72.50;;;;;;5082624;28;20136;-71
2022/05/18 09:43:38;;;;;;;3.28;2.30;;;24.40;72.40;;;;;;5084399;28;20107;-72
2022/05/18 09:46:07;;;;;;;5.75;2.25;;;24.40;71.50;;;;;;5090153;28;20047;-71
2022/05/18 09:48:49;;;;;;;4.55;1.95;;;24.40;71.60;;;;;;5084555;28;20055;-71
2022/05/18 09:51:15;;;;;;;5.22;1.60;;;24.50;70.90;;;;;;5087950;28;20042;-70
2022/05/18 09:53:41;;;;;;;3.55;1.98;;;24.50;68.40;;;;;;5088677;28;20080;-71
2022/05/18 09:56:30;;;;;;;3.75;1.92;;;24.60;68.10;;;;;;5089134;28;20028;-71
2022/05/18 09:59:01;;;;;;;3.22;1.75;;;24.60;67.50;;;;;;5082739;28;20063;-70
2022/05/18 10:07:28;;;;;;;3.85;1.60;;;24.80;67.30;;;;;;5081628;28;20129;-71
2022/05/18 10:10:10;;;;;;;3.40;1.90;;;24.80;65.40;;;;;;5086924;28;20415;-70
2022/05/18 10:12:48;;;;;;;5.40;1.92;;;24.80;65.40;;;;;;5076760;28;20371;-71
2022/05/18 10:15:25;;;;;;;3.67;1.75;;;24.90;64.30;;;;;;5085024;28;20031;-70
2022/05/18 10:17:57;;;;;;;2.42;1.70;;;24.90;63.90;;;;;;5086655;28;20507;-70
2022/05/18 10:20:28;;;;;;;2.88;1.90;;;25.00;64.10;;;;;;5086120;28;20039;-70
2022/05/18 10:22:55;;;;;;;4.10;1.50;;;25.10;63.50;;;;;;5068698;28;20431;-73
2022/05/18 10:25:32;;;;;;;2.95;2.10;;;25.20;63.20;;;;;;5087481;28;20024;-71
2022/05/18 10:28:01;;;;;;;3.42;1.95;;;25.20;62.50;;;;;;5067868;28;20028;-71
2022/05/18 10:30:31;;;;;;;3.25;1.50;;;25.00;62.00;;;;;;5067232;28;20026;-71
2022/05/18 10:33:03;;;;;;;6.90;1.65;;;25.00;61.70;;;;;;5086402;28;20114;-72
2022/05/18 10:35:46;;;;;;;4.40;2.15;;;25.10;61.70;;;;;;5083971;28;20445;-71
2022/05/18 10:38:21;;;;;;;4.20;1.92;;;25.10;61.10;;;;;;5086026;28;20043;-72
2022/05/18 10:40:48;;;;;;;2.05;1.63;;;25.20;61.60;;;;;;5083206;28;20059;-72
2022/05/18 10:43:40;;;;;;;7.30;2.03;;;25.20;61.30;;;;;;5070281;28;20058;-71
2022/05/18 10:46:28;;;;;;;2.63;1.90;;;25.30;60.30;;;;;;5085511;28;20440;-71
2022/05/18 10:49:21;;;;;;;2.35;1.85;;;25.40;59.90;;;;;;5082922;28;20496;-71
2022/05/18 10:51:49;;;;;;;4.68;1.90;;;25.50;60.50;;;;;;5070353;28;20119;-72
2022/05/18 10:54:17;;;;;;;2.65;1.52;;;25.50;59.60;;;;;;5086135;28;20189;-72
2022/05/18 10:56:44;;;;;;;6.07;2.10;;;25.60;59.40;;;;;;5086139;28;20161;-70
2022/05/18 10:59:16;;;;;;;2.40;1.42;;;25.60;59.90;;;;;;5085657;28;20034;-71
2022/05/18 11:01:58;;;;;;;2.60;1.60;;;25.60;59.30;;;;;;5086491;28;20036;-71
2022/05/18 11:05:04;;;;;;;2.33;1.83;;;25.70;58.80;;;;;;5085928;28;20039;-70
2022/05/18 11:07:31;;;;;;;2.75;1.65;;;25.70;59.20;;;;;;5084222;28;20024;-71
2022/05/18 11:09:57;;;;;;;4.65;1.58;;;25.60;58.80;;;;;;5070222;28;20032;-70
2022/05/18 11:12:38;;;;;;;2.72;1.90;;;25.60;59.50;;;;;;5084124;28;20020;-71
2022/05/18 11:15:07;;;;;;;3.40;2.10;;;25.60;60.20;;;;;;5076506;28;20027;-71
2022/05/18 11:18:09;;;;;;;3.08;1.88;;;25.60;60.60;;;;;;5069017;28;20036;-70
2022/05/18 11:20:50;;;;;;;3.22;1.67;;;25.60;61.20;;;;;;5084191;28;20036;-69
2022/05/18 11:23:38;;;;;;;2.95;1.60;;;25.60;59.90;;;;;;5081721;28;20445;-72
2022/05/18 11:26:22;;;;;;;2.70;2.00;;;25.50;60.50;;;;;;5086706;28;20039;-71
2022/05/18 11:28:51;;;;;;;3.00;1.80;;;25.60;59.70;;;;;;5086766;28;20502;-71
2022/05/18 11:31:35;;;;;;;3.60;1.65;;;25.60;59.50;;;;;;5084019;28;20024;-72
2022/05/18 11:34:15;;;;;;;5.68;1.90;;;25.60;58.10;;;;;;5077551;28;20044;-72
2022/05/18 11:36:46;;;;;;;3.30;1.80;;;25.70;58.30;;;;;;5069321;28;20028;-71
2022/05/18 11:39:33;;;;;;;2.33;1.42;;;25.70;58.50;;;;;;5080318;28;20032;-71
2022/05/18 11:42:16;;;;;;;4.70;1.42;;;25.70;58.10;;;;;;5088369;28;20024;-72
2022/05/18 11:45:02;;;;;;;4.20;1.65;;;25.80;56.90;;;;;;5083649;28;20028;-70
2022/05/18 11:48:01;;;;;;;2.65;1.10;;;25.80;55.30;;;;;;5082000;28;20026;-71
2022/05/18 11:50:48;;;;;;;2.38;1.35;;;25.90;55.00;;;;;;5083151;28;20393;-72
2022/05/18 11:53:41;;;;;;;1.95;1.20;;;26.00;53.90;;;;;;5086594;28;20545;-70
2022/05/18 11:56:45;;;;;;;3.08;1.77;;;26.00;55.20;;;;;;5053952;28;20032;-71
2022/05/18 12:02:30;;;;;;;5.80;1.60;;;26.00;55.80;;;;;;5084842;28;20096;-71
2022/05/18 12:05:14;;;;;;;3.80;1.20;;;26.10;54.30;;;;;;5085560;28;20039;-71
2022/05/18 12:07:57;;;;;;;3.95;1.40;;;26.10;53.90;;;;;;5084756;28;20056;-71
2022/05/18 12:10:29;;;;;;;2.42;1.40;;;26.10;53.70;;;;;;5087313;28;20020;-71
2022/05/18 12:13:32;;;;;;;3.88;1.40;;;26.10;53.40;;;;;;5086372;28;20473;-71
2022/05/18 12:16:09;;;;;;;5.05;1.70;;;26.10;54.20;;;;;;5087787;28;20020;-71
2022/05/18 12:18:38;;;;;;;5.53;1.90;;;26.00;55.20;;;;;;5066244;28;20032;-71
2022/05/18 12:21:17;;;;;;;2.17;1.40;;;26.00;56.40;;;;;;5082010;28;20026;-71
2022/05/18 12:23:48;;;;;;;3.92;1.60;;;26.00;56.80;;;;;;5084325;28;20035;-71
2022/05/18 12:26:15;;;;;;;3.60;1.60;;;26.10;56.10;;;;;;5082324;28;20044;-71
2022/05/18 12:28:42;;;;;;;2.88;1.30;;;26.10;54.60;;;;;;5083267;28;20024;-72
2022/05/18 12:31:09;;;;;;;3.90;1.67;;;26.10;54.60;;;;;;5084799;28;20027;-71
2022/05/18 12:33:45;;;;;;;2.95;1.48;;;26.20;55.30;;;;;;5082883;22;20030;-71
2022/05/18 12:36:16;;;;;;;3.83;1.27;;;26.30;55.60;;;;;;5062156;28;20404;-71
2022/05/18 12:39:06;;;;;;;4.65;1.35;;;26.40;54.50;;;;;;5067049;28;20449;-71
2022/05/18 12:41:31;;;;;;;1.73;1.30;;;26.30;54.00;;;;;;5050009;28;20424;-71
2022/05/18 12:44:33;;;;;;;2.75;1.55;;;26.40;54.10;;;;;;5070324;28;20032;-71
2022/05/18 12:47:10;;;;;;;3.28;1.45;;;26.40;54.00;;;;;;5069142;28;20481;-71
2022/05/18 12:49:42;;;;;;;2.67;1.15;;;26.30;55.90;;;;;;5072590;28;20039;-71
2022/05/18 12:52:29;;;;;;;2.40;1.58;;;26.10;55.70;;;;;;5064354;28;20452;-71
2022/05/18 12:55:00;;;;;;;2.75;1.52;;;26.20;56.60;;;;;;5070589;28;20017;-71
2022/05/18 12:57:40;;;;;;;2.40;1.70;;;26.20;54.40;;;;;;5070783;28;20349;-71
2022/05/18 13:00:24;;;;;;;5.95;1.67;;;26.10;56.10;;;;;;5054293;28;20028;-71
2022/05/18 13:03:01;;;;;;;2.38;1.50;;;26.30;56.00;;;;;;5070730;28;20100;-71
2022/05/18 13:05:26;;;;;;;3.47;1.55;;;26.30;55.60;;;;;;5069976;28;20123;-71
2022/05/18 13:08:23;;;;;;;2.75;1.63;;;26.40;55.40;;;;;;5051026;28;20448;-71
2022/05/18 13:11:21;;;;;;;4.13;2.45;;;26.40;55.50;;;;;;5028761;28;20115;-71
2022/05/18 13:14:01;;;;;;;3.80;2.05;;;26.30;55.80;;;;;;5046715;28;20463;-71
2022/05/18 13:16:39;;;;;;;4.55;1.77;;;26.30;55.50;;;;;;5068693;28;20107;-71
2022/05/18 13:19:14;;;;;;;4.05;1.58;;;26.20;55.00;;;;;;5069265;28;20033;-71
2022/05/18 13:21:44;;;;;;;2.78;1.60;;;26.30;56.10;;;;;;5051643;28;20036;-71